Time;durP1;ratioP1;P1;durP2;ratioP2;P2;SDS_P1;SDS_P2;PMS_P1;PMS_P2;Temp;Humidity;BMP_temperature;BMP_pressure;BME280_temperature;BME280_humidity;BME280_pressure;Samples;Min_cycle;Max_cycle;Signal;HPM_P1;HPM_P2
2023/10/24 00:01:58;;;;;;;14.48;5.35;;;;;;;15.00;69.20;98875.59;4434771;32;34221;-88
2023/10/24 00:04:26;;;;;;;8.75;4.72;;;;;;;15.11;68.74;98872.87;4434034;32;34284;-90
2023/10/24 00:06:53;;;;;;;7.53;4.60;;;;;;;15.30;67.66;98874.41;4435339;32;33962;-89
2023/10/24 00:09:21;;;;;;;8.85;5.05;;;;;;;15.30;67.29;98861.34;4434865;32;33990;-88
2023/10/24 00:11:48;;;;;;;10.85;4.72;;;;;;;15.30;67.10;98861.34;4448942;32;34676;-88
2023/10/24 00:14:16;;;;;;;8.70;5.18;;;;;;;15.21;67.07;98856.25;4429088;32;33971;-90
2023/10/24 00:16:43;;;;;;;10.70;4.80;;;;;;;15.21;67.05;98848.41;4449600;32;33848;-86
2023/10/24 00:19:11;;;;;;;11.60;4.85;;;;;;;15.24;66.81;98838.81;4441480;32;33691;-89
2023/10/24 00:21:39;;;;;;;9.05;4.97;;;;;;;15.19;66.75;98837.09;4450958;32;33617;-89
2023/10/24 00:24:06;;;;;;;9.38;4.68;;;;;;;15.14;66.84;98831.09;4446297;32;34141;-89
2023/10/24 00:26:34;;;;;;;10.32;4.57;;;;;;;15.11;66.96;98828.50;4436495;32;33702;-88
2023/10/24 00:29:02;;;;;;;10.85;4.43;;;;;;;15.17;66.77;98820.59;4444215;32;33567;-89
2023/10/24 00:31:29;;;;;;;9.68;4.85;;;;;;;15.20;66.53;98817.97;4435712;32;33947;-88
2023/10/24 00:33:57;;;;;;;7.93;4.55;;;;;;;15.13;66.49;98808.47;4441360;32;34240;-86
2023/10/24 00:36:24;;;;;;;10.32;5.00;;;;;;;15.15;66.54;98802.31;4435228;32;34386;-89
2023/10/24 00:38:52;;;;;;;8.75;4.60;;;;;;;15.05;66.87;98795.50;4434486;32;34440;-86
2023/10/24 00:41:20;;;;;;;10.55;4.80;;;;;;;15.04;66.92;98793.78;4422286;32;33511;-88
2023/10/24 00:43:48;;;;;;;8.90;5.37;;;;;;;14.98;67.26;98783.41;4436530;32;34870;-89
2023/10/24 00:46:16;;;;;;;11.30;5.28;;;;;;;14.86;68.01;98781.78;4450619;32;33911;-88
2023/10/24 00:48:44;;;;;;;7.80;4.60;;;;;;;14.75;68.58;98796.69;4433811;32;33796;-88
2023/10/24 00:51:11;;;;;;;11.63;5.00;;;;;;;14.74;68.97;98781.94;4435479;32;34682;-86
2023/10/24 00:53:39;;;;;;;7.75;4.78;;;;;;;14.75;68.97;98781.03;4421834;32;35106;-89
2023/10/24 00:56:11;;;;;;;11.55;5.47;;;;;;;14.78;69.21;98791.44;4449049;32;34303;-89
2023/10/24 00:58:39;;;;;;;10.25;5.25;;;;;;;14.73;69.66;98795.81;4435158;32;33567;-88
2023/10/24 01:01:11;;;;;;;7.53;4.82;;;;;;;14.73;69.67;98801.03;4436194;32;33123;-89
2023/10/24 01:03:39;;;;;;;10.55;5.32;;;;;;;14.69;70.23;98805.44;4421056;32;35033;-88
2023/10/24 01:06:07;;;;;;;10.07;5.25;;;;;;;14.70;70.18;98803.69;4433456;32;34741;-89
2023/10/24 01:08:35;;;;;;;16.80;5.80;;;;;;;14.57;70.81;98814.25;4421343;32;33493;-88
2023/10/24 01:11:03;;;;;;;9.57;5.50;;;;;;;14.64;70.68;98827.25;4434820;32;34082;-89
2023/10/24 01:13:31;;;;;;;9.80;5.15;;;;;;;14.78;70.17;98833.19;4431595;32;35014;-88
2023/10/24 01:15:58;;;;;;;10.32;5.25;;;;;;;14.78;69.75;98828.84;4439049;32;34081;-88
2023/10/24 01:18:26;;;;;;;10.40;4.78;;;;;;;14.87;69.46;98835.72;4424908;32;33440;-89
2023/10/24 01:20:54;;;;;;;9.85;4.65;;;;;;;14.90;69.33;98840.91;4444194;32;33499;-89
2023/10/24 01:23:21;;;;;;;11.50;5.35;;;;;;;14.84;69.39;98849.66;4448499;32;34042;-88
2023/10/24 01:25:51;;;;;;;8.77;5.05;;;;;;;14.72;69.61;98828.88;4450767;32;35005;-89
2023/10/24 01:28:19;;;;;;;8.38;4.75;;;;;;;14.69;69.69;98825.44;4424398;32;33653;-89
2023/10/24 01:30:46;;;;;;;11.30;5.40;;;;;;;14.68;69.77;98821.13;4443105;32;33642;-88
2023/10/24 01:33:14;;;;;;;9.70;4.90;;;;;;;14.84;69.16;98820.94;4445950;32;33807;-88
2023/10/24 01:35:41;;;;;;;8.88;5.68;;;;;;;14.90;68.65;98814.81;4441465;32;33426;-88
2023/10/24 01:38:09;;;;;;;11.63;5.15;;;;;;;14.86;68.75;98810.50;4437191;32;33567;-89
2023/10/24 01:40:37;;;;;;;10.32;5.90;;;;;;;14.86;68.65;98812.25;4441649;32;33599;-88
2023/10/24 01:43:04;;;;;;;10.20;4.85;;;;;;;14.71;68.99;98806.28;4441071;32;34921;-89
2023/10/24 01:45:33;;;;;;;11.65;5.18;;;;;;;14.87;68.43;98807.00;4436932;32;35075;-88
2023/10/24 01:48:00;;;;;;;12.60;5.15;;;;;;;14.69;68.40;98802.81;4436572;32;33568;-89
2023/10/24 01:50:28;;;;;;;11.07;5.55;;;;;;;14.78;68.25;98797.53;4443171;32;33435;-89
2023/10/24 01:52:58;;;;;;;11.02;6.03;;;;;;;14.54;69.01;98797.75;4429905;32;34995;-88
2023/10/24 01:55:26;;;;;;;11.23;5.80;;;;;;;14.50;69.37;98804.72;4435976;32;34747;-89
2023/10/24 01:57:54;;;;;;;10.90;5.20;;;;;;;14.70;68.64;98804.56;4436220;32;33705;-87
2023/10/24 02:00:21;;;;;;;8.63;5.03;;;;;;;14.74;68.24;98801.06;4436271;32;32195;-89
2023/10/24 02:02:49;;;;;;;10.73;5.30;;;;;;;14.67;68.38;98790.69;4436160;32;33731;-88
2023/10/24 02:05:16;;;;;;;8.70;5.18;;;;;;;14.70;68.10;98790.63;4436359;32;34103;-89
2023/10/24 02:07:44;;;;;;;11.93;5.80;;;;;;;14.65;67.97;98784.59;4436142;32;33787;-88
2023/10/24 02:10:12;;;;;;;9.57;6.43;;;;;;;14.51;68.49;98783.00;4436273;32;33997;-86
2023/10/24 02:12:39;;;;;;;10.88;6.20;;;;;;;14.37;69.07;98784.84;4435992;32;35038;-88
2023/10/24 02:15:07;;;;;;;11.35;6.10;;;;;;;14.22;69.64;98766.72;4436465;32;34671;-90
2023/10/24 02:17:35;;;;;;;10.52;5.50;;;;;;;14.37;69.15;98769.19;4436134;32;34497;-89
2023/10/24 02:20:04;;;;;;;13.55;6.60;;;;;;;14.36;69.12;98768.31;4435895;32;34118;-89
2023/10/24 02:22:42;;;;;;;10.93;5.82;;;;;;;14.40;69.16;98774.37;4424123;32;35038;-88
2023/10/24 02:25:09;;;;;;;10.10;5.60;;;;;;;14.49;68.50;98778.66;4421899;32;32810;-88
2023/10/24 02:27:38;;;;;;;10.50;5.90;;;;;;;14.39;68.85;98776.97;4435910;32;33866;-90
2023/10/24 02:30:06;;;;;;;10.20;5.80;;;;;;;14.48;68.67;98783.00;4436310;32;33800;-88
2023/10/24 02:32:34;;;;;;;8.88;5.43;;;;;;;14.36;68.90;98783.13;4435631;32;34147;-87
2023/10/24 02:35:01;;;;;;;9.68;5.30;;;;;;;14.50;68.45;98786.47;4436214;32;33738;-88
2023/10/24 02:37:29;;;;;;;10.02;4.62;;;;;;;14.47;68.63;98788.22;4447636;32;33613;-88
2023/10/24 02:39:57;;;;;;;12.48;5.30;;;;;;;14.56;68.17;98780.34;4441492;32;33930;-86
2023/10/24 02:42:24;;;;;;;8.35;4.32;;;;;;;14.43;68.63;98782.16;4444770;32;34000;-86
2023/10/24 02:44:52;;;;;;;8.13;4.10;;;;;;;14.60;67.75;98806.38;4438422;32;33809;-88
2023/10/24 02:47:19;;;;;;;8.25;4.72;;;;;;;14.47;68.13;98802.16;4441398;32;33758;-89
2023/10/24 02:49:47;;;;;;;7.12;4.60;;;;;;;14.46;68.37;98781.28;4443788;32;33753;-86
2023/10/24 02:52:16;;;;;;;9.13;4.25;;;;;;;14.54;68.32;98782.09;4438397;32;34104;-86
2023/10/24 02:54:43;;;;;;;7.90;4.47;;;;;;;14.53;68.31;98783.84;4450289;32;34306;-86
2023/10/24 02:57:11;;;;;;;8.48;4.57;;;;;;;14.54;68.30;98780.34;4444071;32;33366;-84
2023/10/24 02:59:39;;;;;;;9.60;4.95;;;;;;;14.60;68.18;98772.47;4436615;32;33616;-86
2023/10/24 03:02:07;;;;;;;10.00;5.72;;;;;;;14.47;68.74;98765.63;4436174;32;33948;-85
2023/10/24 03:04:35;;;;;;;9.73;5.50;;;;;;;14.43;69.04;98758.69;4449446;32;34761;-87
2023/10/24 03:07:03;;;;;;;8.45;6.00;;;;;;;14.62;68.62;98742.87;4440377;32;33665;-87
2023/10/24 03:09:33;;;;;;;10.00;5.78;;;;;;;14.51;68.82;98730.84;4434809;32;33578;-87
2023/10/24 03:12:00;;;;;;;11.93;6.10;;;;;;;14.71;68.08;98732.38;4439037;32;32718;-88
2023/10/24 03:14:28;;;;;;;11.25;6.82;;;;;;;14.64;68.06;98730.72;4444372;32;33982;-85
2023/10/24 03:16:56;;;;;;;12.93;7.15;;;;;;;14.75;67.91;98734.06;4440223;32;33761;-88
2023/10/24 03:19:24;;;;;;;14.35;6.47;;;;;;;14.53;68.68;98720.37;4436312;32;34824;-87
2023/10/24 03:21:52;;;;;;;13.20;7.00;;;;;;;14.45;69.14;98707.38;4441514;32;33865;-86
2023/10/24 03:24:19;;;;;;;9.65;6.72;;;;;;;14.37;69.28;98696.16;4443818;32;35063;-86
2023/10/24 03:26:47;;;;;;;12.25;7.12;;;;;;;14.44;69.12;98704.81;4442284;32;33663;-86
2023/10/24 03:29:14;;;;;;;13.70;7.20;;;;;;;14.38;69.75;98723.97;4437146;32;35253;-87
2023/10/24 03:31:42;;;;;;;10.68;6.60;;;;;;;14.40;69.63;98727.44;4436772;32;34105;-87
2023/10/24 03:34:10;;;;;;;11.12;6.62;;;;;;;14.45;69.55;98735.22;4439063;32;34356;-85
2023/10/24 03:36:37;;;;;;;11.23;6.32;;;;;;;14.48;69.49;98730.84;4445615;32;33267;-87
2023/10/24 03:39:05;;;;;;;10.88;5.78;;;;;;;14.49;69.58;98742.13;4435694;32;33673;-87
2023/10/24 03:41:33;;;;;;;11.10;5.95;;;;;;;14.57;69.11;98756.84;4443599;32;33844;-85
2023/10/24 03:44:00;;;;;;;9.43;5.82;;;;;;;14.55;69.22;98761.22;4442529;32;33365;-88
2023/10/24 03:46:28;;;;;;;11.10;6.70;;;;;;;14.41;69.43;98755.25;4445921;32;34606;-86
2023/10/24 03:48:57;;;;;;;11.90;6.90;;;;;;;14.25;70.07;98748.44;4442215;32;33922;-86
2023/10/24 03:51:24;;;;;;;11.77;6.75;;;;;;;14.24;70.09;98751.91;4434992;32;33653;-86
2023/10/24 03:53:53;;;;;;;12.43;6.22;;;;;;;14.35;69.62;98750.94;4437913;32;35281;-84
2023/10/24 03:56:20;;;;;;;11.88;6.85;;;;;;;14.38;68.92;98752.66;4436160;32;33832;-88
2023/10/24 03:58:47;;;;;;;10.40;7.37;;;;;;;14.47;68.51;98738.66;4436835;32;33838;-87
2023/10/24 04:01:15;;;;;;;12.35;7.93;;;;;;;14.40;68.44;98731.78;4422759;32;34608;-87
2023/10/24 04:03:43;;;;;;;14.30;8.25;;;;;;;14.30;68.52;98728.41;4438708;32;35404;-86
2023/10/24 04:06:11;;;;;;;15.55;8.35;;;;;;;14.41;68.02;98728.31;4435889;32;33336;-86
2023/10/24 04:08:39;;;;;;;13.32;7.50;;;;;;;14.39;67.83;98725.69;4444935;32;34481;-86
2023/10/24 04:11:14;;;;;;;10.32;7.35;;;;;;;14.45;67.23;98717.81;4451479;32;33814;-87
2023/10/24 04:13:42;;;;;;;12.27;7.87;;;;;;;14.44;67.18;98713.50;4431062;32;34048;-87
2023/10/24 04:16:11;;;;;;;12.02;7.75;;;;;;;14.41;66.96;98715.25;4433408;32;33394;-85
2023/10/24 04:18:39;;;;;;;11.48;8.10;;;;;;;14.33;66.93;98720.56;4445495;32;33977;-87
2023/10/24 04:21:07;;;;;;;10.60;7.75;;;;;;;14.21;67.15;98723.28;4448143;32;34144;-87
2023/10/24 04:23:35;;;;;;;13.68;7.45;;;;;;;14.26;66.92;98713.66;4429352;32;34077;-86
2023/10/24 04:26:05;;;;;;;11.98;7.25;;;;;;;14.28;66.69;98718.00;4437421;32;34478;-87
2023/10/24 04:28:34;;;;;;;14.55;7.70;;;;;;;14.21;66.91;98712.84;4441032;32;33715;-85
2023/10/24 04:31:01;;;;;;;9.93;6.45;;;;;;;14.26;66.78;98729.31;4447605;32;34121;-86
2023/10/24 04:33:29;;;;;;;10.63;6.50;;;;;;;14.24;66.61;98733.66;4444448;32;33840;-87
2023/10/24 04:35:56;;;;;;;10.35;6.37;;;;;;;14.17;67.01;98731.97;4434880;32;34521;-86
2023/10/24 04:38:24;;;;;;;11.18;6.57;;;;;;;14.20;67.09;98734.56;4439208;32;34148;-86
2023/10/24 04:40:52;;;;;;;11.38;7.30;;;;;;;14.20;67.16;98739.78;4446061;32;34175;-87
2023/10/24 04:43:19;;;;;;;11.00;6.55;;;;;;;14.08;67.32;98738.13;4444442;32;34429;-86
2023/10/24 04:45:51;;;;;;;11.70;6.62;;;;;;;14.13;67.08;98736.37;4446516;32;33438;-87
2023/10/24 04:48:18;;;;;;;12.27;6.75;;;;;;;13.97;67.79;98730.41;4427759;32;33711;-87
2023/10/24 04:50:46;;;;;;;8.95;6.43;;;;;;;14.03;67.51;98732.12;4448716;32;33848;-87
2023/10/24 04:53:14;;;;;;;10.45;7.47;;;;;;;14.04;67.25;98726.88;4451461;32;34342;-86
2023/10/24 04:55:42;;;;;;;10.57;6.85;;;;;;;13.99;67.49;98726.06;4436368;32;33915;-86
2023/10/24 04:58:10;;;;;;;10.52;6.03;;;;;;;14.04;67.00;98712.97;4454174;32;33937;-87
2023/10/24 05:00:38;;;;;;;11.10;5.68;;;;;;;13.98;67.15;98707.81;4436489;32;34786;-88
2023/10/24 05:03:06;;;;;;;8.15;5.75;;;;;;;14.04;66.85;98719.06;4448391;32;34336;-84
2023/10/24 05:05:35;;;;;;;9.52;6.25;;;;;;;14.01;66.65;98721.69;4452062;32;34311;-86
2023/10/24 05:08:07;;;;;;;11.15;5.68;;;;;;;14.01;66.54;98724.28;4446969;32;34538;-87
2023/10/24 05:10:35;;;;;;;11.77;6.57;;;;;;;13.95;66.78;98720.87;4438296;32;35030;-84
2023/10/24 05:13:03;;;;;;;9.95;6.62;;;;;;;13.98;66.67;98721.72;4440376;32;34888;-84
2023/10/24 05:15:31;;;;;;;10.15;6.53;;;;;;;13.97;66.80;98721.72;4442707;32;33806;-87
2023/10/24 05:17:59;;;;;;;10.20;6.78;;;;;;;13.93;67.11;98720.87;4438009;32;33277;-87
2023/10/24 05:20:27;;;;;;;13.80;8.05;;;;;;;14.07;66.43;98723.38;4439435;32;33679;-85
2023/10/24 05:22:54;;;;;;;9.73;7.10;;;;;;;13.97;66.64;98717.38;4442528;32;34922;-86
2023/10/24 05:25:22;;;;;;;13.35;7.70;;;;;;;13.94;66.73;98712.22;4437146;32;35064;-87
2023/10/24 05:27:49;;;;;;;10.45;7.57;;;;;;;13.99;66.50;98715.63;4434792;32;33787;-86
2023/10/24 05:30:17;;;;;;;12.15;8.20;;;;;;;14.05;66.39;98713.00;4452606;32;33862;-86
2023/10/24 05:32:44;;;;;;;10.52;7.78;;;;;;;14.01;66.27;98705.19;4439373;32;33391;-87
2023/10/24 05:35:12;;;;;;;14.82;7.57;;;;;;;13.93;66.62;98713.06;4439578;32;33627;-87
2023/10/24 05:37:41;;;;;;;8.85;6.47;;;;;;;13.88;66.91;98717.47;4452453;32;33818;-87
2023/10/24 05:40:09;;;;;;;12.93;7.62;;;;;;;13.90;67.07;98717.44;4452230;32;34937;-87
2023/10/24 05:42:36;;;;;;;12.43;6.78;;;;;;;13.92;66.92;98707.88;4440227;32;33912;-86
2023/10/24 05:45:04;;;;;;;10.52;6.30;;;;;;;13.89;67.19;98708.75;4436812;32;34730;-86
2023/10/24 05:47:32;;;;;;;14.23;6.32;;;;;;;13.96;67.02;98704.38;4437114;32;33826;-87
2023/10/24 05:49:59;;;;;;;12.00;6.25;;;;;;;14.02;66.71;98707.78;4440512;32;34177;-88
2023/10/24 05:52:27;;;;;;;10.18;6.65;;;;;;;14.06;66.67;98717.31;4436820;32;34171;-88
2023/10/24 05:54:58;;;;;;;11.32;7.78;;;;;;;14.01;67.15;98726.91;4436722;32;34491;-85
2023/10/24 05:57:28;;;;;;;10.02;6.97;;;;;;;14.10;66.97;98720.75;4436738;32;34572;-87
2023/10/24 05:59:55;;;;;;;11.93;8.45;;;;;;;14.05;67.22;98719.91;4434153;32;33727;-86
2023/10/24 06:02:23;;;;;;;11.60;7.65;;;;;;;14.06;67.45;98719.91;4438441;32;33781;-87
2023/10/24 06:04:51;;;;;;;12.35;7.82;;;;;;;14.17;67.40;98713.72;4452338;32;34516;-87
2023/10/24 06:07:18;;;;;;;16.30;8.45;;;;;;;14.00;68.26;98719.97;4452085;32;34241;-86
2023/10/24 06:09:46;;;;;;;9.85;7.82;;;;;;;14.09;68.27;98726.81;4433361;32;33910;-87
2023/10/24 06:12:14;;;;;;;12.75;7.80;;;;;;;14.12;68.60;98727.66;4452069;32;34036;-87
2023/10/24 06:14:41;;;;;;;12.80;8.82;;;;;;;14.16;68.52;98743.28;4451973;32;33402;-87
2023/10/24 06:17:09;;;;;;;14.80;10.20;;;;;;;14.15;68.71;98736.34;4451912;32;34767;-87
2023/10/24 06:19:40;;;;;;;14.23;10.27;;;;;;;14.17;69.01;98735.47;4441323;32;33825;-87
2023/10/24 06:22:08;;;;;;;15.10;11.18;;;;;;;14.30;69.02;98733.63;4436495;32;34152;-86
2023/10/24 06:24:36;;;;;;;18.98;11.25;;;;;;;14.35;68.89;98734.41;4436482;32;33622;-86
2023/10/24 06:27:04;;;;;;;20.88;11.55;;;;;;;14.35;69.06;98742.25;4436476;32;34320;-86
2023/10/24 06:29:31;;;;;;;17.52;11.12;;;;;;;14.33;69.41;98728.37;4446278;32;33465;-87
2023/10/24 06:31:59;;;;;;;17.42;11.50;;;;;;;14.36;69.45;98720.53;4451493;32;35021;-87
2023/10/24 06:34:27;;;;;;;18.80;11.88;;;;;;;14.34;70.06;98725.75;4452066;32;33515;-87
2023/10/24 06:36:54;;;;;;;16.75;10.50;;;;;;;14.43;70.25;98736.97;4450505;32;33622;-87
2023/10/24 06:39:22;;;;;;;16.15;10.80;;;;;;;14.40;70.78;98752.66;4436870;32;33864;-87
2023/10/24 06:41:52;;;;;;;14.27;11.32;;;;;;;14.48;70.83;98751.69;4436610;32;33998;-87
2023/10/24 06:44:21;;;;;;;20.27;13.00;;;;;;;14.50;70.87;98736.06;4436681;32;33553;-87
2023/10/24 06:46:52;;;;;;;15.68;10.88;;;;;;;14.46;71.18;98727.34;4436709;32;34123;-85
2023/10/24 06:49:19;;;;;;;18.98;11.57;;;;;;;14.74;70.17;98734.97;4450030;32;33560;-86
2023/10/24 06:51:47;;;;;;;19.37;11.77;;;;;;;14.77;70.16;98727.97;4451980;32;34940;-86
2023/10/24 06:54:15;;;;;;;15.55;12.15;;;;;;;14.79;70.40;98713.13;4451630;32;34615;-87
2023/10/24 06:56:42;;;;;;;16.10;11.45;;;;;;;14.92;70.10;98716.44;4451719;32;33518;-87
2023/10/24 06:59:09;;;;;;;16.25;11.80;;;;;;;14.92;70.20;98715.59;4438737;32;34156;-88
2023/10/24 07:01:37;;;;;;;19.15;11.35;;;;;;;14.83;70.59;98716.56;4437095;32;34178;-87
2023/10/24 07:04:05;;;;;;;16.90;12.23;;;;;;;14.98;70.05;98705.09;4436215;32;33422;-87
2023/10/24 07:06:32;;;;;;;18.85;12.50;;;;;;;14.79;71.03;98707.06;4436556;32;33542;-87
2023/10/24 07:09:00;;;;;;;15.43;12.25;;;;;;;14.81;71.02;98708.78;4447914;32;35041;-87
2023/10/24 07:11:28;;;;;;;17.08;11.52;;;;;;;15.00;70.44;98704.19;4449100;32;34099;-87
2023/10/24 07:13:55;;;;;;;13.98;11.55;;;;;;;14.93;70.87;98712.97;4451838;32;33654;-87
2023/10/24 07:16:23;;;;;;;18.67;11.98;;;;;;;14.90;71.34;98726.06;4451776;32;34208;-88
2023/10/24 07:18:50;;;;;;;14.57;10.80;;;;;;;14.84;71.69;98713.94;4450618;32;33314;-87
2023/10/24 07:21:18;;;;;;;15.45;11.70;;;;;;;14.87;71.55;98713.03;4442727;32;34494;-85
2023/10/24 07:23:46;;;;;;;17.83;11.07;;;;;;;14.91;71.85;98711.25;4438808;32;33748;-86
2023/10/24 07:26:14;;;;;;;15.05;10.80;;;;;;;14.91;71.94;98709.50;4434982;32;33777;-88
2023/10/24 07:28:41;;;;;;;13.95;11.60;;;;;;;15.24;70.51;98702.16;4435999;32;34072;-88
2023/10/24 07:31:09;;;;;;;16.33;12.88;;;;;;;15.05;71.46;98712.81;4447022;32;33997;-87
2023/10/24 07:33:36;;;;;;;16.50;11.07;;;;;;;15.13;71.56;98709.25;4451073;32;34353;-86
2023/10/24 07:36:08;;;;;;;15.25;11.32;;;;;;;15.27;70.77;98707.34;4451603;32;33889;-87
2023/10/24 07:38:36;;;;;;;15.52;11.35;;;;;;;15.28;70.26;98704.69;4451444;32;33831;-86
2023/10/24 07:41:03;;;;;;;16.55;11.27;;;;;;;15.35;69.61;98692.41;4439985;32;34928;-87
2023/10/24 07:43:31;;;;;;;18.02;10.93;;;;;;;15.27;70.02;98686.44;4435970;32;33580;-89
2023/10/24 07:45:59;;;;;;;13.70;10.57;;;;;;;15.08;70.15;98691.91;4436430;32;34394;-87
2023/10/24 07:48:27;;;;;;;17.85;13.32;;;;;;;14.98;70.74;98689.44;4429688;32;204197;-86
2023/10/24 07:50:56;;;;;;;19.85;16.80;;;;;;;15.16;70.55;98688.34;4442739;32;35012;-87
2023/10/24 07:53:25;;;;;;;20.85;14.95;;;;;;;15.01;71.13;98692.88;4441686;32;33809;-85
2023/10/24 07:55:52;;;;;;;17.02;12.00;;;;;;;15.35;70.50;98683.72;4450139;32;33837;-86
2023/10/24 07:58:20;;;;;;;15.73;11.23;;;;;;;15.48;69.94;98685.25;4438274;32;34174;-87
2023/10/24 08:00:48;;;;;;;15.45;11.38;;;;;;;15.58;69.16;98677.25;4435879;32;33993;-88
2023/10/24 08:03:18;;;;;;;17.42;12.10;;;;;;;15.62;68.95;98683.31;4435808;32;33236;-86
2023/10/24 08:05:45;;;;;;;18.25;11.73;;;;;;;15.50;69.12;98686.97;4435751;32;34391;-85
2023/10/24 08:08:13;;;;;;;18.00;14.13;;;;;;;15.43;70.14;98687.09;4435631;32;34936;-83
2023/10/24 08:10:41;;;;;;;15.00;11.27;;;;;;;15.61;70.01;98689.44;4446952;32;34884;-87
2023/10/24 08:13:08;;;;;;;13.77;10.93;;;;;;;15.78;68.69;98692.66;4451022;32;33838;-87
2023/10/24 08:15:36;;;;;;;21.62;14.15;;;;;;;15.73;68.79;98691.00;4451001;32;34093;-86
2023/10/24 08:18:03;;;;;;;18.37;13.30;;;;;;;15.71;70.16;98687.56;4450962;32;34983;-87
2023/10/24 08:20:31;;;;;;;21.62;15.68;;;;;;;15.58;70.38;98682.47;4451007;32;33782;-87
2023/10/24 08:22:58;;;;;;;20.98;14.60;;;;;;;15.84;70.50;98689.09;4450669;32;34741;-86
2023/10/24 08:25:26;;;;;;;14.07;10.18;;;;;;;15.85;70.33;98693.44;4452839;32;34132;-86
2023/10/24 08:27:53;;;;;;;13.93;9.45;;;;;;;16.19;68.32;98700.72;4452961;32;34137;-88
2023/10/24 08:30:21;;;;;;;14.77;10.52;;;;;;;15.76;70.14;98701.44;4452882;32;33941;-88
2023/10/24 08:32:48;;;;;;;16.12;9.80;;;;;;;15.96;70.32;98691.50;4452861;32;33564;-88
2023/10/24 08:35:16;;;;;;;14.35;10.35;;;;;;;16.32;69.03;98688.28;4452867;32;33390;-86
2023/10/24 08:37:44;;;;;;;14.75;8.55;;;;;;;16.30;70.05;98683.06;4452789;32;34184;-87
2023/10/24 08:40:12;;;;;;;11.05;8.82;;;;;;;16.48;67.97;98685.34;4452901;32;34859;-84
2023/10/24 08:42:39;;;;;;;13.70;7.95;;;;;;;16.26;68.44;98684.88;4452711;32;33648;-88
2023/10/24 08:45:08;;;;;;;14.85;8.27;;;;;;;16.58;66.85;98677.31;4438657;32;33157;-85
2023/10/24 08:47:36;;;;;;;12.68;7.70;;;;;;;16.73;66.34;98682.25;4439077;32;33819;-85
2023/10/24 08:50:05;;;;;;;13.13;8.30;;;;;;;16.56;67.21;98679.97;4438671;32;34025;-86
2023/10/24 08:52:33;;;;;;;12.55;7.95;;;;;;;16.43;67.89;98681.09;4452702;32;33662;-86
2023/10/24 08:55:03;;;;;;;16.62;7.75;;;;;;;16.53;67.07;98664.34;4452971;32;33908;-84
2023/10/24 08:57:41;;;;;;;12.98;9.23;;;;;;;16.64;66.80;98671.97;4452347;32;34596;-87
2023/10/24 09:00:14;;;;;;;17.50;9.05;;;;;;;16.35;67.93;98670.75;4452853;32;34012;-87
2023/10/24 09:02:42;;;;;;;13.23;8.95;;;;;;;16.60;67.34;98672.94;4452734;32;34096;-84
2023/10/24 09:05:12;;;;;;;20.80;10.40;;;;;;;16.48;67.83;98676.66;4451086;32;33606;-88
2023/10/24 09:07:40;;;;;;;13.82;9.10;;;;;;;16.21;68.28;98664.91;4451338;32;34331;-86
2023/10/24 09:10:08;;;;;;;16.12;9.85;;;;;;;16.58;66.91;98645.91;4452494;32;34892;-85
2023/10/24 09:12:38;;;;;;;12.65;9.13;;;;;;;16.80;66.96;98652.47;4452694;32;33287;-84
2023/10/24 09:15:09;;;;;;;13.88;9.20;;;;;;;16.75;67.54;98638.63;4452893;32;33927;-88
2023/10/24 09:17:37;;;;;;;13.52;8.45;;;;;;;16.73;67.64;98632.53;4452502;32;34887;-87
2023/10/24 09:20:08;;;;;;;13.43;8.35;;;;;;;16.60;67.14;98624.06;4452469;32;33908;-88
2023/10/24 09:22:40;;;;;;;13.65;8.52;;;;;;;16.76;66.98;98614.16;4452627;32;33541;-84
2023/10/24 09:25:08;;;;;;;14.38;7.30;;;;;;;16.88;67.08;98619.13;4450870;32;33524;-89
2023/10/24 09:27:36;;;;;;;13.95;8.45;;;;;;;16.98;66.62;98625.91;4451132;32;33945;-88
2023/10/24 09:30:11;;;;;;;11.88;7.93;;;;;;;16.88;66.85;98621.75;4452481;32;34139;-85
2023/10/24 09:32:41;;;;;;;14.35;7.87;;;;;;;17.17;65.81;98636.84;4451163;32;33338;-87
2023/10/24 09:35:09;;;;;;;11.27;7.62;;;;;;;16.95;66.84;98632.97;4451578;32;33412;-86
2023/10/24 09:37:47;;;;;;;13.88;7.82;;;;;;;16.92;67.36;98644.37;4451126;32;34946;-84
2023/10/24 09:40:15;;;;;;;12.63;7.45;;;;;;;16.87;67.47;98638.38;4452191;32;34604;-87
2023/10/24 09:42:43;;;;;;;11.43;6.20;;;;;;;17.23;66.28;98646.31;4452642;32;33359;-85
2023/10/24 09:45:11;;;;;;;10.73;6.25;;;;;;;17.49;65.44;98636.09;4452065;32;33744;-88
2023/10/24 09:47:40;;;;;;;15.43;7.55;;;;;;;17.61;65.27;98650.66;4450992;32;34574;-87
2023/10/24 09:50:11;;;;;;;11.27;5.47;;;;;;;17.75;65.22;98645.97;4450926;32;34761;-89
2023/10/24 09:52:40;;;;;;;12.45;6.35;;;;;;;17.70;64.28;98646.97;4450935;32;33311;-88
2023/10/24 09:55:08;;;;;;;15.55;6.90;;;;;;;17.90;64.00;98631.63;4451169;32;33983;-88
2023/10/24 09:57:36;;;;;;;11.10;5.85;;;;;;;17.94;63.96;98614.91;4451294;32;33699;-87
2023/10/24 10:00:04;;;;;;;12.75;4.95;;;;;;;17.72;64.86;98611.94;4450855;32;34796;-85
2023/10/24 10:02:40;;;;;;;11.20;4.80;;;;;;;18.15;63.31;98607.41;4451006;32;33400;-86
2023/10/24 10:05:08;;;;;;;9.48;3.75;;;;;;;18.15;62.97;98626.63;4451921;32;33402;-86
2023/10/24 10:07:36;;;;;;;10.93;4.62;;;;;;;18.47;61.40;98611.75;4451986;32;33453;-88
2023/10/24 10:10:05;;;;;;;8.20;3.78;;;;;;;18.34;61.03;98594.66;4450911;32;34843;-87
2023/10/24 10:12:33;;;;;;;8.95;5.07;;;;;;;18.56;61.84;98592.25;4452057;32;33409;-85
2023/10/24 10:15:14;;;;;;;12.65;5.20;;;;;;;18.53;61.55;98577.47;4450842;32;33789;-87
2023/10/24 10:17:50;;;;;;;12.45;4.57;;;;;;;18.58;61.00;98558.94;4451882;32;33826;-85
2023/10/24 10:20:28;;;;;;;8.93;5.28;;;;;;;18.34;61.98;98552.66;4452174;32;34518;-84
2023/10/24 10:23:09;;;;;;;12.10;5.28;;;;;;;18.36;61.98;98550.84;4451871;32;33804;-88
2023/10/24 10:25:49;;;;;;;8.10;4.05;;;;;;;17.76;63.61;98555.06;4452101;32;33736;-85
2023/10/24 10:28:41;;;;;;;12.55;4.93;;;;;;;17.85;63.76;98573.22;4451843;32;34912;-87
2023/10/24 10:31:21;;;;;;;11.52;4.95;;;;;;;18.15;63.51;98571.53;4452064;32;33738;-85
2023/10/24 10:34:08;;;;;;;9.23;4.68;;;;;;;18.33;62.83;98564.88;4451941;32;33606;-87
2023/10/24 10:36:52;;;;;;;11.20;4.47;;;;;;;18.28;63.15;98566.78;4450787;32;33888;-88
2023/10/24 10:39:19;;;;;;;9.18;3.78;;;;;;;18.24;63.12;98555.53;4452324;32;34640;-85
2023/10/24 10:41:47;;;;;;;10.10;3.72;;;;;;;18.66;61.61;98542.06;4452170;32;34072;-87
2023/10/24 10:44:39;;;;;;;9.05;3.45;;;;;;;18.52;61.96;98546.00;4452102;32;33655;-88
2023/10/24 10:47:13;;;;;;;10.27;3.53;;;;;;;18.65;61.88;98539.50;4451717;32;33967;-85
2023/10/24 10:49:51;;;;;;;11.25;3.20;;;;;;;18.66;62.05;98541.19;4450840;32;34170;-88
2023/10/24 10:52:39;;;;;;;9.23;3.12;;;;;;;18.40;61.87;98545.44;4450397;32;34069;-85
2023/10/24 10:55:29;;;;;;;8.63;3.25;;;;;;;18.59;61.75;98558.91;4450633;32;33443;-86
2023/10/24 10:58:21;;;;;;;9.35;2.65;;;;;;;18.74;61.98;98547.13;4450384;32;33679;-84
2023/10/24 11:01:13;;;;;;;13.60;3.25;;;;;;;18.67;61.33;98550.78;4451796;32;33961;-87
2023/10/24 11:03:43;;;;;;;8.57;3.50;;;;;;;18.85;61.63;98560.78;4444554;32;34983;-85
2023/10/24 11:06:15;;;;;;;11.68;3.90;;;;;;;18.74;61.53;98559.38;4451569;32;34197;-86
2023/10/24 11:08:49;;;;;;;8.70;3.50;;;;;;;18.99;60.67;98549.84;4450594;32;33490;-85
2023/10/24 11:11:19;;;;;;;7.75;3.12;;;;;;;18.95;61.30;98559.59;4450605;32;34509;-85
2023/10/24 11:13:48;;;;;;;8.60;3.87;;;;;;;19.13;60.87;98547.66;4450427;32;33896;-87
2023/10/24 11:16:16;;;;;;;9.10;3.12;;;;;;;18.91;61.37;98557.97;4451803;32;34463;-86
2023/10/24 11:19:04;;;;;;;18.02;3.12;;;;;;;18.88;61.31;98551.97;4452100;32;33531;-85
2023/10/24 11:21:31;;;;;;;10.50;3.30;;;;;;;19.31;60.50;98553.22;4451759;32;33967;-86
2023/10/24 11:23:59;;;;;;;9.55;3.62;;;;;;;19.07;61.27;98563.59;4450420;32;33781;-86
2023/10/24 11:26:27;;;;;;;7.62;3.28;;;;;;;19.27;61.05;98548.97;4451414;32;33210;-88
2023/10/24 11:28:54;;;;;;;10.38;3.05;;;;;;;19.19;60.82;98547.44;4451527;32;33738;-84
2023/10/24 11:31:23;;;;;;;9.80;3.33;;;;;;;19.34;61.33;98551.34;4451475;32;33941;-85
2023/10/24 11:33:52;;;;;;;11.88;3.72;;;;;;;19.39;61.19;98546.78;4451526;32;34824;-86